createdAt,value
2023-03-03T00:01:15.264Z,30.00
2023-03-03T00:03:41.765Z,29.00
2023-03-03T00:06:11.447Z,32.03
2023-03-03T00:08:38.469Z,29.83
2023-03-03T00:11:06.869Z,31.10
2023-03-03T00:13:45.142Z,32.07
2023-03-03T00:16:17.719Z,30.00
2023-03-03T00:18:46.808Z,30.47
2023-03-03T00:21:32.063Z,32.20
2023-03-03T00:24:25.804Z,31.17
2023-03-03T00:27:00.702Z,31.27
2023-03-03T00:29:40.645Z,33.40
2023-03-03T00:32:20.180Z,31.80
2023-03-03T00:34:47.187Z,31.87
2023-03-03T00:37:32.890Z,30.20
2023-03-03T00:40:22.208Z,32.90
2023-03-03T00:42:57.773Z,30.83
2023-03-03T00:45:28.884Z,28.77
2023-03-03T00:47:56.064Z,29.80
2023-03-03T00:50:35.290Z,31.03
2023-03-03T00:53:17.074Z,32.70
2023-03-03T00:55:44.012Z,33.20
2023-03-03T00:58:11.104Z,33.63
2023-03-03T01:00:37.977Z,33.77
2023-03-03T01:03:08.279Z,33.70
2023-03-03T01:05:34.949Z,33.67
2023-03-03T01:08:01.795Z,36.37
2023-03-03T01:10:30.994Z,32.63
2023-03-03T01:12:58.242Z,34.63
2023-03-03T01:15:25.004Z,32.20
2023-03-03T01:17:51.921Z,32.37
2023-03-03T01:20:19.002Z,34.80
2023-03-03T01:22:45.491Z,34.53
2023-03-03T01:25:11.949Z,35.00
2023-03-03T01:27:38.604Z,34.00
2023-03-03T01:30:06.502Z,33.60
2023-03-03T01:32:33.343Z,31.90
2023-03-03T01:35:00.026Z,30.53
2023-03-03T01:37:26.599Z,36.70
2023-03-03T01:39:54.862Z,33.67
2023-03-03T01:42:22.254Z,33.20
2023-03-03T01:44:49.502Z,36.00
2023-03-03T01:47:19.723Z,34.23
2023-03-03T01:49:58.144Z,33.80
2023-03-03T01:52:35.964Z,33.10
2023-03-03T01:55:09.990Z,33.27
2023-03-03T01:57:42.269Z,33.90
2023-03-03T02:00:10.784Z,34.67
2023-03-03T02:02:40.490Z,33.90
2023-03-03T02:05:07.560Z,32.90
2023-03-03T02:07:35.568Z,31.67
2023-03-03T02:10:13.535Z,34.33
2023-03-03T02:12:53.657Z,35.80
2023-03-03T02:15:35.964Z,33.67
2023-03-03T02:18:07.403Z,32.30
2023-03-03T02:20:55.285Z,35.13
2023-03-03T02:24:00.812Z,33.20
2023-03-03T02:26:29.401Z,33.27
2023-03-03T02:28:56.204Z,34.03
2023-03-03T02:31:25.599Z,35.20
2023-03-03T02:33:53.961Z,32.97
2023-03-03T02:36:26.537Z,34.43
2023-03-03T02:39:08.256Z,35.20
2023-03-03T02:41:34.860Z,32.77
2023-03-03T02:44:07.273Z,35.20
2023-03-03T02:46:39.263Z,31.87
2023-03-03T02:49:07.560Z,33.23
2023-03-03T02:51:34.697Z,34.30
2023-03-03T02:54:02.427Z,34.17
2023-03-03T02:56:29.340Z,35.53
2023-03-03T02:58:56.379Z,30.17
2023-03-03T03:01:23.030Z,31.10
2023-03-03T03:03:49.744Z,34.43
2023-03-03T03:06:16.219Z,34.77
2023-03-03T03:08:42.822Z,34.00
2023-03-03T03:11:09.406Z,35.10
2023-03-03T03:13:35.889Z,32.47
2023-03-03T03:16:02.515Z,33.27
2023-03-03T03:18:29.023Z,33.40
2023-03-03T03:20:55.438Z,30.87
2023-03-03T03:23:22.042Z,30.30
2023-03-03T03:25:48.739Z,32.73
2023-03-03T03:28:17.125Z,32.10
2023-03-03T03:30:44.287Z,31.17
2023-03-03T03:33:10.868Z,31.17
2023-03-03T03:35:37.884Z,30.17
2023-03-03T03:38:04.373Z,33.17
2023-03-03T03:40:30.828Z,31.73
2023-03-03T03:42:57.387Z,31.30
2023-03-03T03:45:23.932Z,32.23
2023-03-03T03:47:50.465Z,31.10
2023-03-03T03:50:16.939Z,34.63
2023-03-03T03:52:43.783Z,31.50
2023-03-03T03:55:10.618Z,31.23
2023-03-03T03:57:37.023Z,33.50
2023-03-03T04:00:05.897Z,33.60
2023-03-03T04:02:32.451Z,30.13
2023-03-03T04:04:59.062Z,31.33
2023-03-03T04:07:25.529Z,30.37
2023-03-03T04:09:52.068Z,31.17
2023-03-03T04:12:18.539Z,31.17
2023-03-03T04:14:45.097Z,29.47
2023-03-03T04:17:22.349Z,31.50
2023-03-03T04:19:48.812Z,32.53
2023-03-03T04:22:15.322Z,30.63
2023-03-03T04:24:42.000Z,30.67
2023-03-03T04:27:09.490Z,30.77
2023-03-03T04:29:36.180Z,34.57
2023-03-03T04:32:02.735Z,35.70
2023-03-03T04:34:29.236Z,37.60
2023-03-03T04:36:55.668Z,36.23
2023-03-03T04:39:22.191Z,36.03
2023-03-03T04:41:48.671Z,34.03
2023-03-03T04:44:15.457Z,35.30
2023-03-03T04:46:41.932Z,37.53
2023-03-03T04:49:09.798Z,36.73
2023-03-03T04:51:38.056Z,35.77
2023-03-03T04:54:04.723Z,36.00
2023-03-03T04:56:31.664Z,35.50
2023-03-03T04:58:58.438Z,41.17
2023-03-03T05:01:24.981Z,37.40
2023-03-03T05:03:51.579Z,39.50
2023-03-03T05:06:18.900Z,39.87
2023-03-03T05:08:46.496Z,40.07
2023-03-03T05:11:13.967Z,41.50
2023-03-03T05:13:40.468Z,43.33
2023-03-03T05:16:07.398Z,41.40
2023-03-03T05:18:33.836Z,42.60
2023-03-03T05:21:00.307Z,44.50
2023-03-03T05:23:26.755Z,45.80
2023-03-03T05:25:53.285Z,48.93
2023-03-03T05:28:19.856Z,47.27
2023-03-03T05:30:46.492Z,45.60
2023-03-03T05:33:16.321Z,45.07
2023-03-03T05:35:43.066Z,48.20
2023-03-03T05:38:09.731Z,45.50
2023-03-03T05:40:36.581Z,46.03
2023-03-03T05:43:03.259Z,48.00
2023-03-03T05:45:29.791Z,46.40
2023-03-03T05:47:56.227Z,46.90
2023-03-03T05:50:23.556Z,45.47
2023-03-03T05:52:50.761Z,47.43
2023-03-03T05:55:18.361Z,46.43
2023-03-03T05:57:45.547Z,46.33
2023-03-03T06:00:13.638Z,47.77
2023-03-03T06:02:41.651Z,44.30
2023-03-03T06:05:08.937Z,46.27
2023-03-03T06:07:35.800Z,45.00
2023-03-03T06:10:03.283Z,44.70
2023-03-03T06:12:29.756Z,43.97
2023-03-03T06:14:56.211Z,46.33
2023-03-03T06:17:22.774Z,42.77
2023-03-03T06:19:49.202Z,38.47
2023-03-03T06:22:15.651Z,39.40
2023-03-03T06:24:42.296Z,39.50
2023-03-03T06:27:09.687Z,40.70
2023-03-03T06:29:36.131Z,40.70
2023-03-03T06:32:02.997Z,42.70
2023-03-03T06:34:29.631Z,43.50
2023-03-03T06:36:57.065Z,44.53
2023-03-03T06:39:23.523Z,41.93
2023-03-03T06:41:50.022Z,38.30
2023-03-03T06:44:16.644Z,39.83
2023-03-03T06:46:43.079Z,41.80
2023-03-03T06:49:09.579Z,40.80
2023-03-03T06:51:40.677Z,36.27
2023-03-03T06:54:12.766Z,38.30
2023-03-03T06:56:39.933Z,41.23
2023-03-03T06:59:13.025Z,41.47
2023-03-03T07:01:39.774Z,39.67
2023-03-03T07:04:33.766Z,37.70
2023-03-03T07:07:15.183Z,38.00
2023-03-03T07:09:44.910Z,36.83
2023-03-03T07:12:15.386Z,38.47
2023-03-03T07:15:07.280Z,36.57
2023-03-03T07:17:34.618Z,36.10
2023-03-03T07:20:01.734Z,34.73
2023-03-03T07:22:30.204Z,33.47
2023-03-03T07:25:01.944Z,32.43
2023-03-03T07:27:31.101Z,31.70
2023-03-03T07:30:16.408Z,33.03
2023-03-03T07:32:45.427Z,32.10
2023-03-03T07:35:39.118Z,32.13
2023-03-03T07:38:37.251Z,29.13
2023-03-03T07:41:10.736Z,32.23
2023-03-03T07:43:47.633Z,29.37
2023-03-03T07:46:23.082Z,28.40
2023-03-03T07:48:50.721Z,30.80
2023-03-03T07:51:23.268Z,30.70
2023-03-03T07:53:49.777Z,28.57
2023-03-03T07:56:34.184Z,29.97
2023-03-03T07:59:07.886Z,30.00
2023-03-03T08:01:40.464Z,29.50
2023-03-03T08:04:52.779Z,32.23
2023-03-03T08:07:21.969Z,30.17
2023-03-03T08:09:51.934Z,31.23
2023-03-03T08:12:20.265Z,33.00
2023-03-03T08:14:47.134Z,31.30
2023-03-03T08:17:23.919Z,29.77
2023-03-03T08:19:52.872Z,31.00
2023-03-03T08:22:30.314Z,29.20
2023-03-03T08:24:56.845Z,29.20
2023-03-03T08:27:23.289Z,28.00
2023-03-03T08:29:50.123Z,27.70
2023-03-03T08:32:16.669Z,29.87
2023-03-03T08:34:43.137Z,28.77
2023-03-03T08:37:09.690Z,28.47
2023-03-03T08:39:36.165Z,30.60
2023-03-03T08:42:02.827Z,29.40
2023-03-03T08:44:29.317Z,30.97
2023-03-03T08:46:55.860Z,29.70
2023-03-03T08:49:22.338Z,29.70
2023-03-03T08:51:48.789Z,31.50
2023-03-03T08:54:15.265Z,32.87
2023-03-03T08:56:41.763Z,30.20
2023-03-03T08:59:08.209Z,27.97
2023-03-03T09:01:34.992Z,29.03
2023-03-03T09:04:01.486Z,29.77
2023-03-03T09:06:28.069Z,31.27
2023-03-03T09:08:55.056Z,30.43
2023-03-03T09:11:27.974Z,33.67
2023-03-03T09:14:16.036Z,30.60
2023-03-03T09:16:50.118Z,32.63
2023-03-03T09:19:30.743Z,33.80
2023-03-03T09:22:03.168Z,34.97
2023-03-03T09:24:31.334Z,34.10
2023-03-03T09:26:59.011Z,37.47
2023-03-03T09:29:31.823Z,36.00
2023-03-03T09:32:08.701Z,31.93
2023-03-03T09:34:43.042Z,31.17
2023-03-03T09:37:33.762Z,32.03
2023-03-03T09:40:00.262Z,32.00
2023-03-03T09:43:00.657Z,30.50
2023-03-03T09:45:46.006Z,32.13
2023-03-03T09:48:57.588Z,32.53
2023-03-03T09:51:51.651Z,31.50
2023-03-03T09:54:40.431Z,33.47
2023-03-03T09:57:27.442Z,30.07
2023-03-03T09:59:59.953Z,31.47
2023-03-03T10:02:38.193Z,33.90
2023-03-03T10:05:48.697Z,31.80
2023-03-03T10:08:52.070Z,31.10
2023-03-03T10:11:48.800Z,30.70
2023-03-03T10:14:46.787Z,34.50
2023-03-03T10:17:47.537Z,32.00
2023-03-03T10:20:53.513Z,32.10
2023-03-03T10:23:29.381Z,31.60
2023-03-03T10:26:34.705Z,32.77
2023-03-03T10:29:22.377Z,35.83
2023-03-03T10:32:18.567Z,35.90
2023-03-03T10:34:54.396Z,35.67
2023-03-03T10:37:48.632Z,35.60
2023-03-03T10:40:38.640Z,33.93
2023-03-03T10:43:31.767Z,36.63
2023-03-03T10:46:32.792Z,35.00
2023-03-03T10:49:14.727Z,33.23
2023-03-03T10:51:52.996Z,35.67
2023-03-03T10:54:31.479Z,36.90
2023-03-03T10:57:25.937Z,36.80
2023-03-03T11:00:08.166Z,37.00
2023-03-03T11:03:05.311Z,36.63
2023-03-03T11:06:01.341Z,37.90
2023-03-03T11:08:53.868Z,37.77
2023-03-03T11:11:25.699Z,40.30
2023-03-03T11:14:02.243Z,37.60
2023-03-03T11:16:42.186Z,37.30
2023-03-03T11:19:39.062Z,37.80
2023-03-03T11:22:42.956Z,36.60
2023-03-03T11:25:27.614Z,37.97
2023-03-03T11:27:59.844Z,35.17
2023-03-03T11:30:45.248Z,37.17
2023-03-03T11:33:36.291Z,39.07
2023-03-03T11:36:17.909Z,34.30
2023-03-03T11:38:56.850Z,35.07
2023-03-03T11:41:30.732Z,35.90
2023-03-03T11:44:06.043Z,35.30
2023-03-03T11:46:43.810Z,35.67
2023-03-03T11:49:19.477Z,33.47
2023-03-03T11:52:07.048Z,36.00
2023-03-03T11:55:06.057Z,35.50
2023-03-03T11:57:54.430Z,35.97
2023-03-03T12:00:39.095Z,35.30
2023-03-03T12:03:30.046Z,34.50
2023-03-03T12:06:05.598Z,32.30
2023-03-03T12:08:34.870Z,30.63
2023-03-03T12:11:23.046Z,30.97
2023-03-03T12:14:46.402Z,30.47
2023-03-03T12:17:41.656Z,31.50
2023-03-03T12:20:11.048Z,31.30
2023-03-03T12:23:18.010Z,32.20
2023-03-03T12:26:02.346Z,31.60
2023-03-03T12:28:36.896Z,31.90
2023-03-03T12:31:22.668Z,30.87
2023-03-03T12:34:17.217Z,32.47
2023-03-03T12:36:55.672Z,31.20
2023-03-03T12:39:46.314Z,32.10
2023-03-03T12:42:22.103Z,31.33
2023-03-03T12:45:07.356Z,29.50
2023-03-03T12:47:41.677Z,30.70
2023-03-03T12:50:46.344Z,31.67
2023-03-03T12:53:34.596Z,27.53
2023-03-03T12:56:07.902Z,30.67
2023-03-03T12:58:56.906Z,30.53
2023-03-03T13:01:32.517Z,30.07
2023-03-03T13:04:20.719Z,27.97
2023-03-03T13:07:11.686Z,29.63
2023-03-03T13:10:02.775Z,28.50
2023-03-03T13:12:47.773Z,28.30
2023-03-03T13:15:38.145Z,26.57
2023-03-03T13:18:20.143Z,25.43
2023-03-03T13:20:53.833Z,26.80
2023-03-03T13:23:41.526Z,28.07
2023-03-03T13:26:17.123Z,26.63
2023-03-03T13:29:18.815Z,25.30
2023-03-03T13:31:51.953Z,24.03
2023-03-03T13:34:29.498Z,24.90
2023-03-03T13:37:03.089Z,23.63
2023-03-03T13:39:39.865Z,24.50
2023-03-03T13:42:22.495Z,24.20
2023-03-03T13:44:50.898Z,24.10
2023-03-03T13:47:41.478Z,23.13
2023-03-03T13:50:21.412Z,22.20
2023-03-03T13:53:32.031Z,22.27
2023-03-03T13:56:35.780Z,25.10
2023-03-03T13:59:10.009Z,22.87
2023-03-03T14:02:15.375Z,25.60
2023-03-03T14:04:57.410Z,22.80
2023-03-03T14:07:42.137Z,23.77
2023-03-03T14:10:10.956Z,22.20
2023-03-03T14:12:37.407Z,23.03
2023-03-03T14:15:22.017Z,22.50
2023-03-03T14:18:05.430Z,23.97
2023-03-03T14:20:37.794Z,22.90
2023-03-03T14:23:13.383Z,22.60
2023-03-03T14:26:04.651Z,21.30
2023-03-03T14:28:40.405Z,24.93
2023-03-03T14:31:28.969Z,22.67
2023-03-03T14:34:20.464Z,23.23
2023-03-03T14:36:46.944Z,24.50
2023-03-03T14:39:35.153Z,25.13
2023-03-03T14:42:05.460Z,22.57
2023-03-03T14:44:38.660Z,24.17
2023-03-03T14:47:11.256Z,23.40
2023-03-03T14:49:39.995Z,22.00
2023-03-03T14:52:15.809Z,26.00
2023-03-03T14:54:47.877Z,23.87
2023-03-03T14:57:51.236Z,22.77
2023-03-03T15:00:24.136Z,20.97
2023-03-03T15:03:27.693Z,22.00
2023-03-03T15:05:58.086Z,23.13
2023-03-03T15:08:36.151Z,21.53
2023-03-03T15:11:36.414Z,21.80
2023-03-03T15:14:16.179Z,24.40
2023-03-03T15:16:45.834Z,22.97
2023-03-03T15:19:33.518Z,23.90
2023-03-03T15:22:11.984Z,24.90
2023-03-03T15:24:50.341Z,24.63
2023-03-03T15:27:28.543Z,23.27
2023-03-03T15:30:18.550Z,23.73
2023-03-03T15:32:53.186Z,23.30
2023-03-03T15:35:28.955Z,23.10
2023-03-03T15:38:11.071Z,23.90
2023-03-03T15:41:03.245Z,22.87
2023-03-03T15:43:44.250Z,22.30
2023-03-03T15:46:44.053Z,22.27
2023-03-03T15:49:48.099Z,22.23
2023-03-03T15:52:22.766Z,21.70
2023-03-03T15:55:06.244Z,21.90
2023-03-03T15:57:56.334Z,18.93
2023-03-03T16:00:36.769Z,18.87
2023-03-03T16:03:21.676Z,19.70
2023-03-03T16:06:15.513Z,20.17
2023-03-03T16:08:56.427Z,21.43
2023-03-03T16:11:39.963Z,19.77
2023-03-03T16:14:36.163Z,20.87
2023-03-03T16:17:26.372Z,20.50
2023-03-03T16:20:01.912Z,18.67
2023-03-03T16:22:49.727Z,20.30
2023-03-03T16:25:22.155Z,21.57
2023-03-03T16:28:19.563Z,20.03
2023-03-03T16:31:20.024Z,19.97
2023-03-03T16:34:00.575Z,19.60
2023-03-03T16:37:01.829Z,18.97
2023-03-03T16:39:53.382Z,20.13
2023-03-03T16:42:26.502Z,22.13
2023-03-03T16:45:05.149Z,20.50
2023-03-03T16:47:44.051Z,22.10
2023-03-03T16:50:21.023Z,22.17
2023-03-03T16:53:01.281Z,20.87
2023-03-03T16:55:35.466Z,23.77
2023-03-03T16:58:19.182Z,21.13
2023-03-03T17:01:04.316Z,20.10
2023-03-03T17:03:45.696Z,19.80
2023-03-03T17:06:35.183Z,20.60
2023-03-03T17:09:32.862Z,20.90
2023-03-03T17:12:02.883Z,23.43
2023-03-03T17:14:40.002Z,23.07
2023-03-03T17:17:37.724Z,22.80
2023-03-03T17:20:29.226Z,23.40
2023-03-03T17:23:14.054Z,22.73
2023-03-03T17:25:52.537Z,22.13
2023-03-03T17:28:18.933Z,22.93
2023-03-03T17:31:07.442Z,22.60
2023-03-03T17:33:58.831Z,21.67
2023-03-03T17:36:45.916Z,21.10
2023-03-03T17:39:24.478Z,21.43
2023-03-03T17:42:09.447Z,20.93
2023-03-03T17:44:35.787Z,20.27
2023-03-03T17:47:09.146Z,21.20
2023-03-03T17:50:01.140Z,21.43
2023-03-03T17:53:05.381Z,21.87
2023-03-03T17:55:34.882Z,19.30
2023-03-03T17:58:20.177Z,21.00
2023-03-03T18:01:08.976Z,21.93
2023-03-03T18:03:53.960Z,24.10
2023-03-03T18:06:48.268Z,24.17
2023-03-03T18:09:47.593Z,23.73
2023-03-03T18:12:45.042Z,26.53
2023-03-03T18:15:23.872Z,25.23
2023-03-03T18:18:15.274Z,25.43
2023-03-03T18:20:58.397Z,23.53
2023-03-03T18:23:27.930Z,20.53
2023-03-03T18:26:04.235Z,22.33
2023-03-03T18:28:51.362Z,22.57
2023-03-03T18:31:26.731Z,21.57
2023-03-03T18:34:21.241Z,21.40
2023-03-03T18:36:57.371Z,19.30
2023-03-03T18:39:39.154Z,20.83
2023-03-03T18:42:30.470Z,20.67
2023-03-03T18:45:00.710Z,18.67
2023-03-03T18:48:05.091Z,19.83
2023-03-03T18:50:34.368Z,20.27
2023-03-03T18:53:19.825Z,20.10
2023-03-03T18:55:50.899Z,20.60
2023-03-03T18:58:17.340Z,19.00
2023-03-03T19:00:59.752Z,18.63
2023-03-03T19:03:38.184Z,21.67
2023-03-03T19:06:08.539Z,23.00
2023-03-03T19:08:58.704Z,22.50
2023-03-03T19:11:42.096Z,20.17
2023-03-03T19:14:26.431Z,20.00
2023-03-03T19:16:54.307Z,19.27
2023-03-03T19:19:24.619Z,20.33
2023-03-03T19:22:27.367Z,22.80
2023-03-03T19:25:09.232Z,22.87
2023-03-03T19:27:59.755Z,24.03
2023-03-03T19:30:52.995Z,23.27
2023-03-03T19:33:25.049Z,23.17
2023-03-03T19:36:03.536Z,24.47
2023-03-03T19:38:51.421Z,25.70
2023-03-03T19:41:39.686Z,20.17
2023-03-03T19:44:48.383Z,20.80
2023-03-03T19:47:24.052Z,19.93
2023-03-03T19:50:00.720Z,20.90
2023-03-03T19:52:38.947Z,19.97
2023-03-03T19:55:11.561Z,20.70
2023-03-03T19:57:48.876Z,22.07
2023-03-03T20:00:21.366Z,25.17
2023-03-03T20:03:21.180Z,25.43
2023-03-03T20:06:08.367Z,20.87
2023-03-03T20:08:57.577Z,21.70
2023-03-03T20:11:33.076Z,22.30
2023-03-03T20:14:07.861Z,21.57
2023-03-03T20:16:41.394Z,22.10
2023-03-03T20:19:42.203Z,23.43
2023-03-03T20:22:17.933Z,22.50
2023-03-03T20:25:22.061Z,21.60
2023-03-03T20:28:22.623Z,25.10
2023-03-03T20:30:58.163Z,23.70
2023-03-03T20:34:01.688Z,23.87
2023-03-03T20:36:45.443Z,23.73
2023-03-03T20:39:49.416Z,25.17
2023-03-03T20:42:28.025Z,22.57
2023-03-03T20:45:14.768Z,23.67
2023-03-03T20:47:59.562Z,23.90
2023-03-03T20:50:37.419Z,23.93
2023-03-03T20:53:05.038Z,35.77
2023-03-03T20:55:44.418Z,25.47
2023-03-03T20:58:13.843Z,27.67
2023-03-03T21:00:58.362Z,24.40
2023-03-03T21:03:25.095Z,25.30
2023-03-03T21:05:58.046Z,26.33
2023-03-03T21:08:48.397Z,24.60
2023-03-03T21:11:17.580Z,25.63
2023-03-03T21:13:57.058Z,27.60
2023-03-03T21:16:23.539Z,24.23
2023-03-03T21:19:03.295Z,25.53
2023-03-03T21:21:33.007Z,28.40
2023-03-03T21:23:59.546Z,25.53
2023-03-03T21:26:55.964Z,27.23
2023-03-03T21:29:35.921Z,26.77
2023-03-03T21:32:08.029Z,26.17
2023-03-03T21:34:41.297Z,24.50
2023-03-03T21:37:11.008Z,26.17
2023-03-03T21:39:40.148Z,27.70
2023-03-03T21:42:09.611Z,24.83
2023-03-03T21:44:39.017Z,26.23
2023-03-03T21:47:07.362Z,26.60
2023-03-03T21:49:34.494Z,28.73
2023-03-03T21:52:01.297Z,25.80
2023-03-03T21:54:27.998Z,26.30
2023-03-03T21:56:54.540Z,24.80
2023-03-03T21:59:21.032Z,28.77
2023-03-03T22:01:47.576Z,29.87
2023-03-03T22:04:14.702Z,27.67
2023-03-03T22:06:41.268Z,30.07
2023-03-03T22:09:08.484Z,25.23
2023-03-03T22:11:35.240Z,26.00
2023-03-03T22:14:01.935Z,25.93
2023-03-03T22:16:28.459Z,27.07
2023-03-03T22:18:54.970Z,27.57
2023-03-03T22:21:21.941Z,26.77
2023-03-03T22:23:48.381Z,27.80
2023-03-03T22:26:14.920Z,25.50
2023-03-03T22:28:43.890Z,26.60
2023-03-03T22:31:10.797Z,26.70
2023-03-03T22:33:37.259Z,26.40
2023-03-03T22:36:04.029Z,25.23
2023-03-03T22:38:30.523Z,24.17
2023-03-03T22:40:57.000Z,26.40
2023-03-03T22:43:23.509Z,27.07
2023-03-03T22:45:50.464Z,24.10
2023-03-03T22:48:17.020Z,27.43
2023-03-03T22:50:45.412Z,26.53
2023-03-03T22:53:11.894Z,27.70
2023-03-03T22:55:38.378Z,27.00
2023-03-03T22:58:06.046Z,27.97
2023-03-03T23:00:34.405Z,27.43
2023-03-03T23:03:01.029Z,27.80
2023-03-03T23:05:27.525Z,26.27
2023-03-03T23:07:54.075Z,27.90
2023-03-03T23:10:20.666Z,26.87
2023-03-03T23:12:47.151Z,25.00
2023-03-03T23:15:14.899Z,26.87
2023-03-03T23:17:45.426Z,24.37
2023-03-03T23:20:19.986Z,26.33
2023-03-03T23:22:46.529Z,24.60
2023-03-03T23:25:14.502Z,26.30
2023-03-03T23:27:42.668Z,28.07
2023-03-03T23:30:11.398Z,26.27
2023-03-03T23:32:37.939Z,27.50
2023-03-03T23:35:05.471Z,28.77
2023-03-03T23:37:32.310Z,29.50
2023-03-03T23:39:58.750Z,27.83
2023-03-03T23:42:25.988Z,26.30
2023-03-03T23:44:52.539Z,29.00
2023-03-03T23:47:22.017Z,26.93
2023-03-03T23:49:48.497Z,30.27
2023-03-03T23:52:15.117Z,32.87
2023-03-03T23:54:41.576Z,33.40
2023-03-03T23:57:08.748Z,29.87
2023-03-03T23:59:37.540Z,26.70
